Time;durP1;ratioP1;P1;durP2;ratioP2;P2;SDS_P1;SDS_P2;PMS_P1;PMS_P2;Temp;Humidity;BMP_temperature;BMP_pressure;BME280_temperature;BME280_humidity;BME280_pressure;Samples;Min_cycle;Max_cycle;Signal;HPM_P1;HPM_P2
2023/05/15 00:00:11;;;;;;;12.68;3.63;;;10.60;99.90;;;;;;5112672;28;20031;-64
2023/05/15 00:02:38;;;;;;;12.13;5.70;;;10.60;99.90;;;;;;5113236;28;20069;-64
2023/05/15 00:05:06;;;;;;;13.65;4.90;;;10.60;99.90;;;;;;5095320;28;20046;-63
2023/05/15 00:07:33;;;;;;;11.90;5.15;;;10.50;99.90;;;;;;5094324;28;20611;-63
2023/05/15 00:09:59;;;;;;;11.45;4.75;;;10.50;99.90;;;;;;5113074;28;20124;-63
2023/05/15 00:12:25;;;;;;;7.97;3.67;;;10.40;99.90;;;;;;5113065;28;20048;-64
2023/05/15 00:14:51;;;;;;;11.02;4.90;;;10.40;99.90;;;;;;5093843;28;20035;-63
2023/05/15 00:17:17;;;;;;;10.13;4.30;;;10.40;99.90;;;;;;5112923;28;20038;-63
2023/05/15 00:19:43;;;;;;;13.68;5.63;;;10.40;99.90;;;;;;5094122;28;20027;-64
2023/05/15 00:22:08;;;;;;;11.25;4.47;;;10.40;99.90;;;;;;5112586;28;20467;-64
2023/05/15 00:24:34;;;;;;;9.77;5.18;;;10.40;99.90;;;;;;5112405;28;20035;-64
2023/05/15 00:27:01;;;;;;;11.07;4.90;;;10.30;99.90;;;;;;5093930;28;20038;-64
2023/05/15 00:29:27;;;;;;;14.63;4.88;;;10.30;99.90;;;;;;5094537;28;20388;-64
2023/05/15 00:31:52;;;;;;;12.80;6.03;;;10.20;99.90;;;;;;5094099;28;20044;-64
2023/05/15 00:34:19;;;;;;;10.50;5.53;;;10.20;99.90;;;;;;5112215;28;20070;-64
2023/05/15 00:36:45;;;;;;;11.70;5.88;;;10.20;99.90;;;;;;5077516;28;20523;-64
2023/05/15 00:39:10;;;;;;;10.68;3.58;;;10.10;99.90;;;;;;5094126;28;20093;-63
2023/05/15 00:41:37;;;;;;;9.23;4.32;;;10.10;99.90;;;;;;5093747;28;20091;-64
2023/05/15 00:44:05;;;;;;;8.90;4.20;;;10.10;99.90;;;;;;5093994;28;20047;-64
2023/05/15 00:46:33;;;;;;;11.48;4.07;;;10.10;99.90;;;;;;5112515;28;20039;-64
2023/05/15 00:49:00;;;;;;;9.80;4.43;;;10.10;99.90;;;;;;5093244;28;20063;-64
2023/05/15 00:51:26;;;;;;;10.35;4.68;;;10.10;99.90;;;;;;5093806;28;20050;-64
2023/05/15 00:53:53;;;;;;;12.18;5.35;;;10.10;99.90;;;;;;5093844;28;20051;-64
2023/05/15 00:56:20;;;;;;;9.93;4.90;;;10.10;99.90;;;;;;5111638;28;20040;-63
2023/05/15 00:58:47;;;;;;;13.07;4.95;;;10.10;99.90;;;;;;5093936;28;20043;-64
2023/05/15 01:01:15;;;;;;;12.15;5.00;;;10.10;99.90;;;;;;5094103;28;20031;-64
2023/05/15 01:03:41;;;;;;;7.35;4.18;;;10.10;99.90;;;;;;5093076;28;20036;-64
2023/05/15 01:06:07;;;;;;;17.13;5.10;;;10.10;99.90;;;;;;5111978;28;20071;-64
2023/05/15 01:08:41;;;;;;;9.95;4.18;;;10.10;99.90;;;;;;5093289;28;20086;-64
2023/05/15 01:11:07;;;;;;;10.52;4.45;;;10.10;99.90;;;;;;5112180;28;20043;-64
2023/05/15 01:13:33;;;;;;;10.02;4.28;;;10.10;99.90;;;;;;5076472;28;20122;-64
2023/05/15 01:15:59;;;;;;;9.27;4.75;;;10.10;99.90;;;;;;5111308;28;20027;-64
2023/05/15 01:18:31;;;;;;;8.43;4.53;;;10.10;99.90;;;;;;5093271;28;20398;-64
2023/05/15 01:20:56;;;;;;;10.40;4.68;;;10.10;99.90;;;;;;5093380;28;20043;-64
2023/05/15 01:23:34;;;;;;;8.88;4.20;;;10.10;99.90;;;;;;5092754;28;20700;-64
2023/05/15 01:26:32;;;;;;;9.13;3.97;;;10.00;99.90;;;;;;5111607;28;20044;-63
2023/05/15 01:29:07;;;;;;;7.10;3.35;;;10.00;99.90;;;;;;5088899;28;20126;-64
2023/05/15 01:31:36;;;;;;;6.10;3.42;;;10.00;99.90;;;;;;5092758;28;20118;-64
2023/05/15 01:34:05;;;;;;;6.63;3.80;;;10.00;99.90;;;;;;5092901;28;20048;-63
2023/05/15 01:36:47;;;;;;;10.00;3.75;;;10.00;99.90;;;;;;5076029;28;20074;-63
2023/05/15 01:39:18;;;;;;;10.40;3.63;;;10.00;99.90;;;;;;5111697;28;20032;-64
2023/05/15 01:41:45;;;;;;;8.80;3.50;;;10.00;99.90;;;;;;5092989;28;20040;-64
2023/05/15 01:44:21;;;;;;;7.70;2.85;;;10.00;99.90;;;;;;5110463;28;20044;-64
2023/05/15 01:46:54;;;;;;;6.95;3.22;;;10.00;99.90;;;;;;5092994;28;20087;-64
2023/05/15 01:49:23;;;;;;;7.72;3.55;;;10.00;99.90;;;;;;5092678;28;20113;-64
2023/05/15 01:51:56;;;;;;;7.47;3.90;;;10.00;99.90;;;;;;5110606;28;20101;-64
2023/05/15 01:54:22;;;;;;;7.18;3.40;;;10.10;99.90;;;;;;5092748;28;20093;-63
2023/05/15 01:56:48;;;;;;;8.77;3.58;;;10.00;99.90;;;;;;5092589;28;20563;-64
2023/05/15 01:59:15;;;;;;;8.63;4.03;;;10.00;99.90;;;;;;5092263;28;20118;-63
2023/05/15 02:01:43;;;;;;;9.63;3.75;;;10.00;99.90;;;;;;5110929;28;20102;-63
2023/05/15 02:04:10;;;;;;;5.55;3.17;;;10.00;99.90;;;;;;5110894;28;20046;-64
2023/05/15 02:06:38;;;;;;;7.95;3.03;;;10.00;99.90;;;;;;5092227;28;20039;-64
2023/05/15 02:09:04;;;;;;;10.65;4.38;;;10.00;99.90;;;;;;5092573;28;20055;-64
2023/05/15 02:11:30;;;;;;;8.85;3.70;;;10.00;99.90;;;;;;5092648;28;20047;-63
2023/05/15 02:13:57;;;;;;;9.20;3.95;;;10.00;99.90;;;;;;5091715;28;20032;-64
2023/05/15 02:16:23;;;;;;;6.95;3.42;;;10.00;99.90;;;;;;5110460;28;20564;-64
2023/05/15 02:18:49;;;;;;;9.85;4.22;;;9.90;99.90;;;;;;5091572;28;20039;-63
2023/05/15 02:21:14;;;;;;;8.65;4.50;;;9.90;99.90;;;;;;5110655;28;20137;-63
2023/05/15 02:23:40;;;;;;;12.10;5.50;;;9.90;99.90;;;;;;5092102;28;20396;-64
2023/05/15 02:26:09;;;;;;;10.38;4.07;;;9.80;99.90;;;;;;5091922;28;20050;-64
2023/05/15 02:29:03;;;;;;;12.60;4.95;;;9.80;99.90;;;;;;5092379;28;20128;-64
2023/05/15 02:31:40;;;;;;;10.00;4.57;;;9.80;99.90;;;;;;5075476;28;20035;-64
2023/05/15 02:34:25;;;;;;;10.73;4.18;;;9.80;99.90;;;;;;5109931;28;20066;-64
2023/05/15 02:36:54;;;;;;;9.93;4.80;;;9.80;99.90;;;;;;5092299;28;20487;-64
2023/05/15 02:39:22;;;;;;;8.73;4.13;;;9.80;99.90;;;;;;5110525;28;20032;-64
2023/05/15 02:41:51;;;;;;;10.10;4.32;;;9.80;99.90;;;;;;5109493;28;20075;-63
2023/05/15 02:44:18;;;;;;;9.88;4.30;;;9.80;99.90;;;;;;5091999;28;20594;-64
2023/05/15 02:46:46;;;;;;;8.80;4.00;;;9.80;99.90;;;;;;5074796;28;20094;-64
2023/05/15 02:49:13;;;;;;;10.77;4.68;;;9.80;99.90;;;;;;5109995;28;20139;-63
2023/05/15 02:51:39;;;;;;;10.55;4.10;;;9.80;99.90;;;;;;5092147;28;20036;-64
2023/05/15 02:54:07;;;;;;;8.70;4.30;;;9.90;99.90;;;;;;5091306;28;20044;-63
2023/05/15 02:56:33;;;;;;;9.38;4.15;;;9.80;99.90;;;;;;5092012;28;20047;-63
2023/05/15 02:58:59;;;;;;;11.55;4.10;;;9.80;99.90;;;;;;5092049;28;20031;-64
2023/05/15 03:01:25;;;;;;;12.98;4.53;;;9.80;99.90;;;;;;5091496;28;20047;-64
2023/05/15 03:03:51;;;;;;;7.43;3.38;;;9.90;99.90;;;;;;5091742;28;20313;-64
2023/05/15 03:06:17;;;;;;;15.55;4.78;;;9.90;99.90;;;;;;5110388;28;20115;-63
2023/05/15 03:08:43;;;;;;;8.07;3.17;;;9.90;99.90;;;;;;5091278;28;20127;-62
2023/05/15 03:11:09;;;;;;;4.80;2.63;;;10.00;99.90;;;;;;5091756;28;20054;-64
2023/05/15 03:13:35;;;;;;;7.68;2.83;;;10.00;99.90;;;;;;5074758;28;20035;-64
2023/05/15 03:16:01;;;;;;;7.78;2.97;;;10.00;99.90;;;;;;5109225;28;20488;-64
2023/05/15 03:18:26;;;;;;;9.80;3.10;;;10.00;99.90;;;;;;5091672;28;20085;-64
2023/05/15 03:20:52;;;;;;;5.53;2.45;;;10.00;99.90;;;;;;5109922;28;20036;-64
2023/05/15 03:23:18;;;;;;;5.60;3.22;;;10.00;99.90;;;;;;5091019;28;20136;-64
2023/05/15 03:25:44;;;;;;;6.10;3.08;;;10.10;99.90;;;;;;5109910;28;20044;-64
2023/05/15 03:28:10;;;;;;;8.80;3.92;;;10.10;99.90;;;;;;5074800;28;20090;-64
2023/05/15 03:30:36;;;;;;;8.43;3.47;;;10.10;99.90;;;;;;5109599;28;20096;-64
2023/05/15 03:33:05;;;;;;;8.38;2.88;;;10.10;99.90;;;;;;5074620;28;20058;-64
2023/05/15 03:35:31;;;;;;;10.95;3.90;;;10.10;99.90;;;;;;5074823;28;20031;-64
2023/05/15 03:37:57;;;;;;;8.55;3.45;;;10.10;99.90;;;;;;5091021;28;20377;-63
2023/05/15 03:40:22;;;;;;;8.20;3.60;;;10.10;99.90;;;;;;5091729;28;20102;-63
2023/05/15 03:42:52;;;;;;;10.00;2.90;;;10.10;99.90;;;;;;5091115;28;20051;-64
2023/05/15 03:45:21;;;;;;;7.23;3.13;;;10.10;99.90;;;;;;5091261;28;20055;-64
2023/05/15 03:47:47;;;;;;;7.57;3.35;;;10.10;99.90;;;;;;5091337;28;20286;-63
2023/05/15 03:50:13;;;;;;;10.70;4.57;;;10.10;99.90;;;;;;5109686;28;20048;-63
2023/05/15 03:52:38;;;;;;;8.48;3.60;;;10.20;99.90;;;;;;5094859;28;20096;-64
2023/05/15 03:55:05;;;;;;;10.82;3.58;;;10.10;99.90;;;;;;5095208;28;20071;-64
2023/05/15 03:57:32;;;;;;;9.57;3.58;;;10.20;99.90;;;;;;5094209;28;20551;-64
2023/05/15 03:59:58;;;;;;;8.65;3.55;;;10.20;99.90;;;;;;5094886;28;20097;-64
2023/05/15 04:02:23;;;;;;;8.93;4.00;;;10.20;99.90;;;;;;5078117;28;20082;-64
2023/05/15 04:04:50;;;;;;;5.93;2.88;;;10.30;99.90;;;;;;5077182;28;20047;-64
2023/05/15 04:07:16;;;;;;;9.85;4.65;;;10.30;99.90;;;;;;5112908;28;20047;-64
2023/05/15 04:09:42;;;;;;;8.38;3.83;;;10.30;99.90;;;;;;5094770;28;20043;-64
2023/05/15 04:12:08;;;;;;;10.07;3.47;;;10.30;99.90;;;;;;5094099;28;20039;-64
2023/05/15 04:14:34;;;;;;;9.60;4.53;;;10.40;99.90;;;;;;5094781;28;20039;-63
2023/05/15 04:17:00;;;;;;;8.75;3.85;;;10.40;99.90;;;;;;5094732;28;20092;-64
2023/05/15 04:19:26;;;;;;;5.93;3.75;;;10.40;99.90;;;;;;5094056;28;20043;-64
2023/05/15 04:21:51;;;;;;;9.52;3.03;;;10.40;99.90;;;;;;5112814;28;20039;-64
2023/05/15 04:24:17;;;;;;;6.22;3.15;;;10.40;99.90;;;;;;5112497;28;20112;-63
2023/05/15 04:26:43;;;;;;;11.57;3.92;;;10.40;99.90;;;;;;5077180;28;20131;-63
2023/05/15 04:29:09;;;;;;;11.02;3.38;;;10.40;99.90;;;;;;5094318;28;20429;-64
2023/05/15 04:31:35;;;;;;;7.90;3.28;;;10.50;99.90;;;;;;5112394;28;20241;-64
2023/05/15 04:34:00;;;;;;;8.85;3.88;;;10.50;99.90;;;;;;5112503;28;20040;-64
2023/05/15 04:36:27;;;;;;;8.57;3.63;;;10.50;99.90;;;;;;5077318;28;20032;-63
2023/05/15 04:38:52;;;;;;;7.60;3.15;;;10.50;99.90;;;;;;5112058;28;20087;-64
2023/05/15 04:41:18;;;;;;;7.45;4.05;;;10.60;99.90;;;;;;5094089;28;20470;-64
2023/05/15 04:43:44;;;;;;;7.65;3.13;;;10.60;99.90;;;;;;5093943;28;20031;-64
2023/05/15 04:46:10;;;;;;;8.43;3.83;;;10.60;99.90;;;;;;5111843;28;20039;-64
2023/05/15 04:48:36;;;;;;;7.32;3.97;;;10.60;99.90;;;;;;5112150;28;20495;-64
2023/05/15 04:51:02;;;;;;;10.20;3.67;;;10.70;99.90;;;;;;5077292;28;20035;-64
2023/05/15 04:53:28;;;;;;;4.72;2.80;;;10.70;99.90;;;;;;5111669;28;20395;-64
2023/05/15 04:55:53;;;;;;;7.90;3.72;;;10.70;99.90;;;;;;5111841;28;20032;-64
2023/05/15 04:58:19;;;;;;;9.25;4.45;;;10.70;99.90;;;;;;5093570;28;20067;-64
2023/05/15 05:00:45;;;;;;;7.03;3.08;;;10.70;99.90;;;;;;5076382;28;20070;-64
2023/05/15 05:03:11;;;;;;;11.82;4.53;;;10.70;99.90;;;;;;5093068;28;20433;-64
2023/05/15 05:05:37;;;;;;;6.13;3.28;;;10.80;99.90;;;;;;5112107;28;20372;-63
2023/05/15 05:08:02;;;;;;;8.30;3.92;;;10.80;99.90;;;;;;5111298;28;20499;-64
2023/05/15 05:10:28;;;;;;;7.65;4.10;;;10.90;99.90;;;;;;5093533;28;20435;-64
2023/05/15 05:12:54;;;;;;;9.18;4.40;;;10.90;99.90;;;;;;5093454;28;20131;-63
2023/05/15 05:15:20;;;;;;;8.85;3.50;;;10.90;99.90;;;;;;5075890;28;20032;-64
2023/05/15 05:17:46;;;;;;;8.82;4.47;;;11.00;99.90;;;;;;5111760;28;20043;-64
2023/05/15 05:20:12;;;;;;;11.52;4.55;;;11.00;99.90;;;;;;5111672;28;20039;-64
2023/05/15 05:22:39;;;;;;;6.75;3.00;;;11.00;99.90;;;;;;5111167;28;20039;-63
2023/05/15 05:25:05;;;;;;;8.18;3.85;;;11.00;99.90;;;;;;5076351;28;20078;-63
2023/05/15 05:27:31;;;;;;;10.95;4.00;;;11.00;99.90;;;;;;5093493;28;20086;-63
2023/05/15 05:29:57;;;;;;;7.85;3.70;;;11.00;99.90;;;;;;5110886;28;20079;-63
2023/05/15 05:32:22;;;;;;;8.80;4.25;;;11.10;99.90;;;;;;5111048;28;20441;-64
2023/05/15 05:34:48;;;;;;;8.75;4.25;;;11.20;99.90;;;;;;5075983;28;20051;-64
2023/05/15 05:37:14;;;;;;;10.32;4.07;;;11.30;99.90;;;;;;5111502;28;20110;-64
2023/05/15 05:39:40;;;;;;;10.20;3.70;;;11.40;99.90;;;;;;5092860;28;20058;-64
2023/05/15 05:42:06;;;;;;;9.02;3.70;;;11.40;99.90;;;;;;5092526;28;20031;-64
2023/05/15 05:44:33;;;;;;;7.40;4.85;;;11.50;99.90;;;;;;5111319;28;20035;-63
2023/05/15 05:46:58;;;;;;;9.20;4.53;;;11.50;99.90;;;;;;5111276;28;20137;-64
2023/05/15 05:49:24;;;;;;;9.93;4.95;;;11.50;99.90;;;;;;5110221;28;20494;-63
2023/05/15 05:51:50;;;;;;;7.70;3.65;;;11.60;99.90;;;;;;5075959;28;20051;-64
2023/05/15 05:54:17;;;;;;;9.18;4.68;;;11.70;99.90;;;;;;5110932;28;20116;-64
2023/05/15 05:56:43;;;;;;;8.07;4.50;;;11.70;99.90;;;;;;5110422;28;20044;-64
2023/05/15 05:59:09;;;;;;;11.13;5.10;;;11.70;99.90;;;;;;5092394;28;20092;-64
2023/05/15 06:01:35;;;;;;;9.10;3.50;;;11.50;99.90;;;;;;5092767;28;20035;-63
2023/05/15 06:04:01;;;;;;;10.93;4.28;;;11.40;99.90;;;;;;5110428;28;20122;-63
2023/05/15 06:06:27;;;;;;;9.07;4.00;;;11.40;99.90;;;;;;5110782;28;20115;-64
2023/05/15 06:08:53;;;;;;;10.25;4.10;;;11.50;99.90;;;;;;5075836;28;20072;-63
2023/05/15 06:11:20;;;;;;;10.25;4.07;;;11.70;99.90;;;;;;5110212;28;20480;-64
2023/05/15 06:13:46;;;;;;;11.32;3.92;;;11.90;99.90;;;;;;5110621;28;20051;-63
2023/05/15 06:16:11;;;;;;;8.75;4.13;;;12.00;99.90;;;;;;5092342;28;20031;-64
2023/05/15 06:18:37;;;;;;;8.30;4.30;;;12.20;99.90;;;;;;5075174;28;20126;-64
2023/05/15 06:21:03;;;;;;;10.07;3.00;;;12.30;99.90;;;;;;5075542;28;20484;-64
2023/05/15 06:23:29;;;;;;;12.32;4.13;;;12.40;99.90;;;;;;5110609;28;20058;-64
2023/05/15 06:25:55;;;;;;;6.72;3.92;;;12.50;99.90;;;;;;5091867;28;20051;-63
2023/05/15 06:28:21;;;;;;;7.97;3.72;;;12.60;99.90;;;;;;5110639;28;20561;-64
2023/05/15 06:30:46;;;;;;;6.70;3.08;;;12.60;99.90;;;;;;5109849;28;20039;-64
2023/05/15 06:33:12;;;;;;;11.40;3.97;;;12.60;99.90;;;;;;5110515;28;20071;-64
2023/05/15 06:35:38;;;;;;;7.05;3.47;;;12.50;99.90;;;;;;5110719;28;20036;-64
2023/05/15 06:38:04;;;;;;;9.70;3.72;;;12.40;99.90;;;;;;5109431;28;20629;-63
2023/05/15 06:40:30;;;;;;;8.73;3.72;;;12.30;99.90;;;;;;5091913;28;20116;-64
2023/05/15 06:42:56;;;;;;;6.00;3.67;;;12.30;99.90;;;;;;5110530;28;20039;-64
2023/05/15 06:45:21;;;;;;;10.20;3.65;;;12.30;99.90;;;;;;5091529;28;20044;-64
2023/05/15 06:47:47;;;;;;;10.13;4.60;;;12.50;99.90;;;;;;5091817;28;20036;-64
2023/05/15 06:50:13;;;;;;;7.82;3.50;;;12.60;99.90;;;;;;5091855;28;20134;-62
2023/05/15 06:52:39;;;;;;;6.40;3.45;;;12.70;99.90;;;;;;5091262;28;20122;-63
2023/05/15 06:55:05;;;;;;;8.63;3.90;;;12.90;99.90;;;;;;5109786;28;20423;-63
2023/05/15 06:57:33;;;;;;;9.40;3.85;;;12.90;99.90;;;;;;5109952;28;20039;-63
2023/05/15 06:59:58;;;;;;;7.03;2.97;;;12.90;99.90;;;;;;5091024;28;20040;-63
2023/05/15 07:02:24;;;;;;;5.78;2.85;;;12.90;99.90;;;;;;5091906;28;20040;-64
2023/05/15 07:04:50;;;;;;;6.40;2.85;;;13.00;99.90;;;;;;5110264;28;20418;-64
2023/05/15 07:07:17;;;;;;;7.55;3.65;;;13.20;99.90;;;;;;5091318;28;20039;-63
2023/05/15 07:09:47;;;;;;;7.13;3.55;;;13.50;99.90;;;;;;5091649;28;20043;-63
2023/05/15 07:12:13;;;;;;;6.68;2.72;;;13.90;99.90;;;;;;5110044;28;20101;-63
2023/05/15 07:14:39;;;;;;;6.45;3.50;;;14.20;99.90;;;;;;5091446;28;20123;-63
2023/05/15 07:17:05;;;;;;;5.80;2.53;;;14.50;99.90;;;;;;5091660;28;20453;-64
2023/05/15 07:19:31;;;;;;;4.97;2.85;;;14.90;99.90;;;;;;5091850;28;20089;-64
2023/05/15 07:21:56;;;;;;;6.13;3.00;;;15.30;99.90;;;;;;5091000;28;20043;-64
2023/05/15 07:24:22;;;;;;;6.75;3.50;;;15.50;99.90;;;;;;5091458;28;20040;-64
2023/05/15 07:26:48;;;;;;;6.60;3.60;;;15.50;99.90;;;;;;5094384;28;20031;-64
2023/05/15 07:29:14;;;;;;;3.67;1.95;;;15.20;99.90;;;;;;5095690;28;20091;-64
2023/05/15 07:31:43;;;;;;;7.38;3.33;;;14.90;99.90;;;;;;5113547;28;20672;-64
2023/05/15 07:34:12;;;;;;;6.20;3.20;;;14.80;99.90;;;;;;5094607;28;20036;-63
2023/05/15 07:36:38;;;;;;;7.57;2.90;;;15.00;99.90;;;;;;5078819;28;20039;-63
2023/05/15 07:39:04;;;;;;;7.05;3.20;;;15.20;99.90;;;;;;5113602;28;20492;-63
2023/05/15 07:41:32;;;;;;;5.93;3.20;;;15.50;99.90;;;;;;5094885;28;20039;-63
2023/05/15 07:43:58;;;;;;;5.70;2.95;;;15.90;99.90;;;;;;5113289;28;20046;-64
2023/05/15 07:46:23;;;;;;;6.50;2.67;;;16.20;99.90;;;;;;5095337;28;20051;-63
2023/05/15 07:48:49;;;;;;;7.60;3.35;;;16.40;99.90;;;;;;5091146;28;20048;-64
2023/05/15 07:51:15;;;;;;;7.95;3.28;;;16.50;99.90;;;;;;5091967;28;20073;-64
2023/05/15 07:53:41;;;;;;;6.72;3.63;;;16.40;99.90;;;;;;5092750;28;20123;-64
2023/05/15 07:56:07;;;;;;;4.25;2.60;;;16.30;99.90;;;;;;5081527;28;20090;-64
2023/05/15 07:58:35;;;;;;;5.47;2.78;;;16.30;99.90;;;;;;5069047;28;20067;-65
2023/05/15 08:01:01;;;;;;;5.73;2.87;;;16.30;99.90;;;;;;5093009;28;20040;-64
2023/05/15 08:03:27;;;;;;;5.63;3.10;;;16.40;99.90;;;;;;5092354;28;20468;-64
2023/05/15 08:05:53;;;;;;;5.18;2.90;;;16.70;99.90;;;;;;5091614;28;20400;-64
2023/05/15 08:08:19;;;;;;;4.95;2.83;;;16.90;99.90;;;;;;5091537;28;20554;-64
2023/05/15 08:10:44;;;;;;;7.90;3.28;;;17.00;99.90;;;;;;5086204;28;20036;-64
2023/05/15 08:13:10;;;;;;;6.03;3.83;;;17.30;99.90;;;;;;5070910;28;20093;-64
2023/05/15 08:15:36;;;;;;;5.65;3.42;;;17.50;99.90;;;;;;5062934;28;20052;-64
2023/05/15 08:18:07;;;;;;;6.82;3.30;;;17.50;99.90;;;;;;5082957;28;20489;-65
2023/05/15 08:20:33;;;;;;;7.03;4.10;;;17.40;99.90;;;;;;5051422;28;20040;-64
2023/05/15 08:22:59;;;;;;;6.95;3.17;;;17.40;99.90;;;;;;5073712;28;20507;-64
2023/05/15 08:25:25;;;;;;;5.85;3.53;;;17.40;99.90;;;;;;5060136;28;20082;-64
2023/05/15 08:27:51;;;;;;;5.20;3.17;;;17.60;99.90;;;;;;5050969;28;20037;-64
2023/05/15 08:30:16;;;;;;;6.57;3.45;;;17.70;99.90;;;;;;5078855;28;20465;-64
2023/05/15 08:32:46;;;;;;;7.93;3.47;;;18.00;99.90;;;;;;5083631;28;20047;-64
2023/05/15 08:35:11;;;;;;;6.15;3.58;;;18.30;99.90;;;;;;5072053;28;20029;-64
2023/05/15 08:37:37;;;;;;;6.65;3.25;;;18.50;99.90;;;;;;5070075;28;20523;-64
2023/05/15 08:40:09;;;;;;;7.60;3.53;;;18.70;99.90;;;;;;5055297;28;20477;-64
2023/05/15 08:42:49;;;;;;;5.43;3.17;;;19.00;99.90;;;;;;5050975;28;20148;-64
2023/05/15 08:45:15;;;;;;;6.05;3.15;;;19.10;99.90;;;;;;5050032;28;20106;-65
2023/05/15 08:47:42;;;;;;;7.65;3.58;;;19.20;99.90;;;;;;5050472;28;20501;-64
2023/05/15 08:50:16;;;;;;;7.28;3.83;;;19.30;99.90;;;;;;5069742;28;20052;-64
2023/05/15 08:52:46;;;;;;;5.78;3.05;;;19.40;99.90;;;;;;5072589;28;20088;-64
2023/05/15 08:55:13;;;;;;;6.13;3.10;;;19.50;99.90;;;;;;5071594;28;20157;-63
2023/05/15 08:57:40;;;;;;;6.60;3.78;;;19.70;99.90;;;;;;5089875;28;20039;-64
2023/05/15 09:00:07;;;;;;;6.00;2.95;;;19.80;99.90;;;;;;5067826;28;20044;-64
2023/05/15 09:02:37;;;;;;;5.47;2.85;;;20.10;99.90;;;;;;5070079;28;20036;-65
2023/05/15 09:05:05;;;;;;;4.63;3.03;;;20.10;99.90;;;;;;5070715;28;20745;-64
2023/05/15 09:07:31;;;;;;;5.55;3.13;;;20.10;99.90;;;;;;5070212;28;20672;-65
2023/05/15 09:10:00;;;;;;;6.10;3.20;;;20.10;99.90;;;;;;5071128;28;20044;-64
2023/05/15 09:12:26;;;;;;;4.63;2.97;;;20.00;99.90;;;;;;5052781;28;20056;-64
2023/05/15 09:15:14;;;;;;;5.60;3.42;;;19.80;99.90;;;;;;5070086;28;20037;-65
2023/05/15 09:17:41;;;;;;;5.18;3.08;;;19.70;99.90;;;;;;5070057;28;20040;-65
2023/05/15 09:20:27;;;;;;;4.97;3.15;;;19.50;99.90;;;;;;5069383;28;20396;-65
2023/05/15 09:22:54;;;;;;;7.95;3.63;;;19.40;99.90;;;;;;5071193;28;20051;-64
2023/05/15 09:25:39;;;;;;;4.72;3.28;;;19.00;99.90;;;;;;5069839;28;20370;-65
2023/05/15 09:28:09;;;;;;;5.15;3.28;;;18.80;99.90;;;;;;5052971;28;20044;-65
2023/05/15 09:30:41;;;;;;;11.82;4.97;;;18.80;99.90;;;;;;5071063;28;20048;-65
2023/05/15 09:33:08;;;;;;;7.63;4.38;;;18.70;99.90;;;;;;5068979;28;20033;-64
2023/05/15 09:35:38;;;;;;;7.78;4.32;;;18.70;99.90;;;;;;5069588;28;20470;-64
2023/05/15 09:38:09;;;;;;;6.88;4.15;;;18.90;99.90;;;;;;5052523;28;20044;-64
2023/05/15 09:40:35;;;;;;;5.90;3.47;;;19.00;99.90;;;;;;5067836;28;20515;-65
2023/05/15 09:43:01;;;;;;;8.98;3.97;;;19.00;99.90;;;;;;5086913;28;20048;-64
2023/05/15 09:45:28;;;;;;;7.70;3.72;;;19.20;99.90;;;;;;5071845;28;20040;-65
2023/05/15 09:47:56;;;;;;;8.05;3.65;;;19.50;99.90;;;;;;5089583;28;20044;-65
2023/05/15 09:50:24;;;;;;;6.75;3.95;;;19.60;99.90;;;;;;5092077;28;20043;-65
2023/05/15 09:52:53;;;;;;;8.27;3.97;;;19.80;99.90;;;;;;5091839;28;20044;-65
2023/05/15 09:55:20;;;;;;;6.00;3.63;;;20.00;99.90;;;;;;5091292;28;20039;-65
2023/05/15 09:58:09;;;;;;;6.90;3.42;;;20.00;99.90;;;;;;5091878;28;20116;-65
2023/05/15 10:00:36;;;;;;;11.35;4.25;;;19.90;99.90;;;;;;5091214;28;20036;-65
2023/05/15 10:03:03;;;;;;;7.80;3.97;;;19.60;99.90;;;;;;5091752;28;20051;-65
2023/05/15 10:05:29;;;;;;;8.95;4.00;;;19.50;99.90;;;;;;5110208;28;20040;-65
2023/05/15 10:07:56;;;;;;;7.07;3.63;;;19.60;99.90;;;;;;5090836;28;20051;-65
2023/05/15 10:10:23;;;;;;;4.30;2.65;;;19.70;99.90;;;;;;5109645;28;20099;-65
2023/05/15 10:12:53;;;;;;;6.53;3.35;;;20.00;99.90;;;;;;5109817;28;20075;-65
2023/05/15 10:15:21;;;;;;;6.32;3.75;;;20.20;99.90;;;;;;5073883;28;20039;-66
2023/05/15 10:17:48;;;;;;;6.28;3.28;;;20.30;99.90;;;;;;5091537;28;20122;-65
2023/05/15 10:20:19;;;;;;;6.30;2.95;;;20.20;99.90;;;;;;5091317;28;20534;-65
2023/05/15 10:22:55;;;;;;;5.90;2.92;;;19.90;99.90;;;;;;5073845;28;20093;-64
2023/05/15 10:25:44;;;;;;;5.22;2.80;;;20.00;99.90;;;;;;5109695;28;20091;-64
2023/05/15 10:28:11;;;;;;;6.18;2.88;;;20.30;99.90;;;;;;5109793;28;20036;-64
2023/05/15 10:30:37;;;;;;;5.93;3.45;;;20.90;99.90;;;;;;5073890;28;20035;-65
2023/05/15 10:33:05;;;;;;;8.10;3.78;;;21.10;99.90;;;;;;5109471;28;20388;-65
2023/05/15 10:35:32;;;;;;;5.90;2.50;;;20.80;99.90;;;;;;5091046;28;20040;-66
2023/05/15 10:37:59;;;;;;;6.65;3.20;;;20.40;99.90;;;;;;5109547;28;20044;-64
2023/05/15 10:40:26;;;;;;;4.82;2.97;;;20.10;99.90;;;;;;5109809;28;20437;-66
2023/05/15 10:42:54;;;;;;;5.85;3.08;;;19.80;99.90;;;;;;5090659;28;20097;-65
2023/05/15 10:45:20;;;;;;;4.78;3.08;;;19.50;99.90;;;;;;5090849;28;20044;-65
2023/05/15 10:47:47;;;;;;;5.47;3.30;;;19.30;99.90;;;;;;5109178;28;20051;-64
2023/05/15 10:50:14;;;;;;;6.63;3.25;;;19.10;99.90;;;;;;5090323;28;20498;-65
2023/05/15 10:52:41;;;;;;;5.60;2.70;;;19.00;99.90;;;;;;5091071;28;20048;-65
2023/05/15 10:55:15;;;;;;;6.43;2.72;;;18.90;99.90;;;;;;5091363;28;20039;-65
2023/05/15 10:57:44;;;;;;;5.18;2.75;;;18.70;99.90;;;;;;5108669;28;20488;-64
2023/05/15 11:00:30;;;;;;;4.97;2.65;;;18.50;99.90;;;;;;5091941;28;20099;-66
2023/05/15 11:02:57;;;;;;;7.93;3.58;;;18.20;99.90;;;;;;5077907;28;20122;-65
2023/05/15 11:05:24;;;;;;;6.18;3.30;;;18.10;99.90;;;;;;5094554;28;20460;-65
2023/05/15 11:08:14;;;;;;;6.47;3.50;;;18.00;99.90;;;;;;5094860;28;20049;-65
2023/05/15 11:10:40;;;;;;;8.18;3.30;;;17.90;99.90;;;;;;5094503;28;20096;-65
2023/05/15 11:13:06;;;;;;;5.63;3.25;;;17.80;99.90;;;;;;5094763;28;20714;-66
2023/05/15 11:15:43;;;;;;;7.15;4.25;;;17.80;99.90;;;;;;5094785;28;20050;-65
2023/05/15 11:18:08;;;;;;;6.95;3.45;;;17.70;99.90;;;;;;5094169;28;20149;-65
2023/05/15 11:20:48;;;;;;;5.10;3.40;;;17.60;99.90;;;;;;5113123;28;20115;-65
2023/05/15 11:23:14;;;;;;;;;;;17.50;99.90;;;;;;5095400;28;20406;-64
2023/05/15 11:25:40;;;;;;;7.22;3.63;;;17.40;99.90;;;;;;5093969;28;20010;-65
2023/05/15 11:28:06;;;;;;;4.97;3.00;;;17.40;99.90;;;;;;5094658;28;20044;-65
2023/05/15 11:30:38;;;;;;;6.00;3.33;;;17.30;99.90;;;;;;5094570;28;20079;-65
2023/05/15 11:33:10;;;;;;;6.13;3.22;;;17.30;99.90;;;;;;5093943;28;20113;-65
2023/05/15 11:35:46;;;;;;;6.38;3.70;;;17.20;99.90;;;;;;5077432;28;20036;-66
2023/05/15 11:38:15;;;;;;;6.15;3.65;;;17.20;99.90;;;;;;5112885;28;20039;-66
2023/05/15 11:41:02;;;;;;;10.23;3.70;;;17.20;99.90;;;;;;5093935;28;20112;-65
2023/05/15 11:43:32;;;;;;;5.85;3.13;;;17.10;99.90;;;;;;5094278;28;20043;-65
2023/05/15 11:46:09;;;;;;;4.72;2.53;;;17.10;99.90;;;;;;5093588;28;20039;-66
2023/05/15 11:48:48;;;;;;;6.43;2.90;;;17.00;99.90;;;;;;5090643;28;20074;-66
2023/05/15 11:51:14;;;;;;;7.57;3.33;;;17.00;99.90;;;;;;5092499;28;20121;-66
2023/05/15 11:53:40;;;;;;;4.22;2.83;;;16.90;99.90;;;;;;5090392;28;20068;-64
2023/05/15 11:56:06;;;;;;;5.10;3.20;;;16.90;99.90;;;;;;5090674;28;20550;-66
2023/05/15 11:58:32;;;;;;;6.13;2.97;;;17.00;99.90;;;;;;5091914;28;20097;-66
2023/05/15 12:00:57;;;;;;;5.32;2.95;;;17.10;99.90;;;;;;5090385;28;20032;-65
2023/05/15 12:03:32;;;;;;;6.18;3.08;;;17.20;99.90;;;;;;5092042;28;20036;-63
2023/05/15 12:06:01;;;;;;;5.57;3.13;;;17.30;99.90;;;;;;5090469;28;20043;-66
2023/05/15 12:08:34;;;;;;;4.60;2.95;;;17.50;99.90;;;;;;5072948;28;20036;-66
2023/05/15 12:11:01;;;;;;;6.53;3.55;;;17.90;99.90;;;;;;5089783;28;20040;-65
2023/05/15 12:13:28;;;;;;;6.50;3.55;;;18.20;99.90;;;;;;5073305;28;20076;-65
2023/05/15 12:15:55;;;;;;;6.07;2.90;;;18.50;99.90;;;;;;5072784;28;20044;-65
2023/05/15 12:18:22;;;;;;;4.90;2.95;;;18.80;99.90;;;;;;5090254;28;20083;-66
2023/05/15 12:20:50;;;;;;;6.03;3.15;;;19.00;99.90;;;;;;5090860;28;20046;-65
2023/05/15 12:23:16;;;;;;;7.05;3.10;;;19.10;99.90;;;;;;5090289;28;20504;-65
2023/05/15 12:25:44;;;;;;;5.63;2.63;;;19.00;99.90;;;;;;5091602;28;20535;-64
2023/05/15 12:28:11;;;;;;;4.80;2.78;;;19.10;99.90;;;;;;5089702;28;20123;-64
2023/05/15 12:30:38;;;;;;;8.45;3.35;;;19.00;99.90;;;;;;5091514;28;20035;-65
2023/05/15 12:33:06;;;;;;;5.32;2.15;;;18.90;99.90;;;;;;5090014;28;20051;-64
2023/05/15 12:35:33;;;;;;;5.13;2.28;;;18.80;99.90;;;;;;5089169;28;20078;-64
2023/05/15 12:38:03;;;;;;;4.38;2.55;;;18.70;99.90;;;;;;5091067;28;20032;-65
2023/05/15 12:40:31;;;;;;;;;;;18.50;99.90;;;;;;5091749;28;20032;-64
2023/05/15 12:42:57;;;;;;;4.65;2.33;;;18.30;99.90;;;;;;5089103;28;19915;-64
2023/05/15 12:45:25;;;;;;;7.03;2.30;;;18.10;99.90;;;;;;5089695;28;20114;-65
2023/05/15 12:47:51;;;;;;;5.25;2.28;;;17.90;99.90;;;;;;5089642;28;20040;-66